Time;durP1;ratioP1;P1;durP2;ratioP2;P2;SDS_P1;SDS_P2;PMS_P1;PMS_P2;Temp;Humidity;BMP_temperature;BMP_pressure;BME280_temperature;BME280_humidity;BME280_pressure;Samples;Min_cycle;Max_cycle;Signal;HPM_P1;HPM_P2
2021/05/09 00:00:45;;;;;;;3.72;1.50;;;;;;;;;;4925882;28;20043;-76
2021/05/09 00:03:12;;;;;;;3.58;1.60;;;;;;;;;;4911909;28;20164;-75
2021/05/09 00:05:38;;;;;;;3.72;1.15;;;;;;;;;;4944515;28;20062;-77
2021/05/09 00:08:05;;;;;;;2.47;1.40;;;;;;;;;;4929818;28;20060;-75
2021/05/09 00:10:32;;;;;;;2.85;1.35;;;;;;;;;;4936192;28;20503;-76
2021/05/09 00:12:58;;;;;;;3.72;1.33;;;;;;;;;;4917197;28;20064;-76
2021/05/09 00:15:26;;;;;;;3.38;1.30;;;;;;;;;;4928963;28;20051;-75
2021/05/09 00:17:52;;;;;;;2.97;1.30;;;;;;;;;;4910719;28;20056;-75
2021/05/09 00:20:19;;;;;;;2.65;1.17;;;;;;;;;;4922535;28;20055;-75
2021/05/09 00:22:46;;;;;;;2.58;1.20;;;;;;;;;;4931652;28;20059;-76
2021/05/09 00:25:12;;;;;;;3.45;1.30;;;;;;;;;;4933641;28;20488;-75
2021/05/09 00:27:42;;;;;;;2.90;1.20;;;;;;;;;;4908536;28;20076;-76
2021/05/09 00:30:09;;;;;;;1.60;1.08;;;;;;;;;;4914407;28;20068;-76
2021/05/09 00:32:36;;;;;;;2.45;1.27;;;;;;;;;;4931813;28;20131;-75
2021/05/09 00:35:03;;;;;;;3.80;1.23;;;;;;;;;;4931231;28;20356;-76
2021/05/09 00:37:29;;;;;;;2.50;1.25;;;;;;;;;;4924483;28;20166;-76
2021/05/09 00:39:55;;;;;;;1.58;0.93;;;;;;;;;;4926959;28;20059;-75
2021/05/09 00:42:22;;;;;;;2.03;1.02;;;;;;;;;;4901051;29;20095;-74
2021/05/09 00:44:48;;;;;;;3.15;1.30;;;;;;;;;;4919287;28;20092;-75
2021/05/09 00:47:15;;;;;;;2.22;1.10;;;;;;;;;;4921822;28;20063;-75
2021/05/09 00:49:41;;;;;;;2.92;1.00;;;;;;;;;;4915937;28;20067;-75
2021/05/09 00:52:09;;;;;;;3.15;1.30;;;;;;;;;;4925127;28;20070;-75
2021/05/09 00:54:37;;;;;;;2.97;1.30;;;;;;;;;;4911990;28;20047;-75
2021/05/09 00:57:04;;;;;;;2.22;1.20;;;;;;;;;;4936267;28;20292;-74
2021/05/09 00:59:33;;;;;;;2.28;1.10;;;;;;;;;;4921765;28;20071;-75
2021/05/09 01:01:59;;;;;;;2.47;1.05;;;;;;;;;;4933231;28;20071;-75
2021/05/09 01:04:26;;;;;;;2.25;1.20;;;;;;;;;;4924260;28;20063;-76
2021/05/09 01:06:53;;;;;;;2.80;1.30;;;;;;;;;;4919710;28;20067;-75
2021/05/09 01:09:19;;;;;;;2.33;1.00;;;;;;;;;;4917921;28;20075;-76
2021/05/09 01:11:46;;;;;;;3.30;1.30;;;;;;;;;;4940413;28;20071;-76
2021/05/09 01:14:12;;;;;;;2.65;1.30;;;;;;;;;;4919897;28;20147;-76
2021/05/09 01:16:39;;;;;;;2.38;1.00;;;;;;;;;;4916986;28;20055;-76
2021/05/09 01:19:05;;;;;;;1.90;1.10;;;;;;;;;;4940964;28;20078;-74
2021/05/09 01:21:32;;;;;;;2.78;1.17;;;;;;;;;;4927167;28;20131;-75
2021/05/09 01:23:59;;;;;;;3.10;1.20;;;;;;;;;;4924670;28;20067;-76
2021/05/09 01:26:25;;;;;;;2.13;1.00;;;;;;;;;;4936596;28;20058;-76
2021/05/09 01:28:52;;;;;;;1.95;1.02;;;;;;;;;;4942463;28;20138;-76
2021/05/09 01:31:18;;;;;;;2.90;1.20;;;;;;;;;;4942688;28;20071;-75
2021/05/09 01:33:44;;;;;;;1.92;1.10;;;;;;;;;;4930165;28;20070;-75
2021/05/09 01:36:14;;;;;;;2.05;1.00;;;;;;;;;;4926484;28;20534;-75
2021/05/09 01:38:40;;;;;;;1.85;1.10;;;;;;;;;;4923342;28;20264;-76
2021/05/09 01:41:07;;;;;;;2.63;1.20;;;;;;;;;;4922003;28;20046;-75
2021/05/09 01:43:34;;;;;;;1.88;1.10;;;;;;;;;;4924352;28;20102;-75
2021/05/09 01:46:01;;;;;;;2.50;1.15;;;;;;;;;;4940629;28;20632;-75
2021/05/09 01:48:27;;;;;;;3.13;1.27;;;;;;;;;;4929689;28;20066;-75
2021/05/09 01:50:54;;;;;;;2.72;1.05;;;;;;;;;;4921533;28;20428;-75
2021/05/09 01:53:21;;;;;;;2.38;1.17;;;;;;;;;;4927705;28;20162;-75
2021/05/09 01:55:47;;;;;;;3.50;1.50;;;;;;;;;;4919664;28;20055;-77
2021/05/09 01:58:13;;;;;;;3.25;1.30;;;;;;;;;;4924231;28;20574;-76
2021/05/09 02:00:40;;;;;;;4.32;1.20;;;;;;;;;;4935232;28;20107;-76
2021/05/09 02:03:07;;;;;;;1.88;1.05;;;;;;;;;;4920072;28;20067;-75
2021/05/09 02:05:33;;;;;;;3.08;1.20;;;;;;;;;;4939885;28;20094;-75
2021/05/09 02:07:59;;;;;;;2.20;1.10;;;;;;;;;;4938300;28;20174;-76
2021/05/09 02:10:26;;;;;;;2.67;1.10;;;;;;;;;;4920868;28;20076;-75
2021/05/09 02:12:52;;;;;;;2.20;1.00;;;;;;;;;;4920442;28;20068;-75
2021/05/09 02:15:19;;;;;;;3.25;1.20;;;;;;;;;;4917111;28;20055;-75
2021/05/09 02:17:45;;;;;;;2.50;1.00;;;;;;;;;;4923395;28;20055;-75
2021/05/09 02:20:12;;;;;;;1.90;1.10;;;;;;;;;;4924234;28;20086;-75
2021/05/09 02:22:38;;;;;;;1.67;0.90;;;;;;;;;;4920374;28;20099;-76
2021/05/09 02:25:05;;;;;;;3.70;1.10;;;;;;;;;;4937946;28;20052;-75
2021/05/09 02:27:32;;;;;;;2.28;1.10;;;;;;;;;;4923770;28;20129;-75
2021/05/09 02:29:59;;;;;;;1.50;0.90;;;;;;;;;;4919734;28;20047;-75
2021/05/09 02:32:25;;;;;;;2.50;1.25;;;;;;;;;;4940160;28;20503;-75
2021/05/09 02:34:52;;;;;;;2.58;1.10;;;;;;;;;;4941723;28;20838;-76
2021/05/09 02:37:18;;;;;;;2.40;1.08;;;;;;;;;;4943951;28;20063;-76
2021/05/09 02:39:48;;;;;;;3.17;1.00;;;;;;;;;;4938777;28;20051;-76
2021/05/09 02:42:15;;;;;;;3.33;1.20;;;;;;;;;;4935288;28;20102;-75
2021/05/09 02:44:41;;;;;;;2.45;1.20;;;;;;;;;;4942336;28;20147;-75
2021/05/09 02:47:08;;;;;;;1.75;0.90;;;;;;;;;;4931109;28;20039;-75
2021/05/09 02:49:34;;;;;;;2.42;1.20;;;;;;;;;;4939019;28;20068;-76
2021/05/09 02:52:01;;;;;;;3.45;1.20;;;;;;;;;;4920867;28;20060;-76
2021/05/09 02:54:28;;;;;;;3.20;1.38;;;;;;;;;;4913830;28;20066;-77
2021/05/09 02:56:54;;;;;;;2.80;1.00;;;;;;;;;;4926570;28;20067;-76
2021/05/09 02:59:21;;;;;;;3.28;1.23;;;;;;;;;;4948834;28;20124;-76
2021/05/09 03:01:47;;;;;;;2.25;1.17;;;;;;;;;;4922877;28;20553;-75
2021/05/09 03:04:13;;;;;;;1.67;1.00;;;;;;;;;;4946360;28;20074;-76
2021/05/09 03:06:40;;;;;;;2.05;1.00;;;;;;;;;;4921506;28;20063;-76
2021/05/09 03:09:06;;;;;;;1.92;1.00;;;;;;;;;;4939389;28;20107;-76
2021/05/09 03:11:33;;;;;;;1.77;1.20;;;;;;;;;;4939355;28;20040;-75
2021/05/09 03:13:59;;;;;;;2.17;1.10;;;;;;;;;;4929521;28;20501;-75
2021/05/09 03:16:26;;;;;;;2.30;1.17;;;;;;;;;;4915793;28;20062;-75
2021/05/09 03:18:52;;;;;;;2.20;1.27;;;;;;;;;;4927341;28;20099;-75
2021/05/09 03:21:21;;;;;;;1.90;1.10;;;;;;;;;;4923509;28;20064;-74
2021/05/09 03:23:47;;;;;;;2.55;0.90;;;;;;;;;;4932464;28;20082;-75
2021/05/09 03:26:13;;;;;;;1.75;0.95;;;;;;;;;;4929873;28;20611;-75
2021/05/09 03:28:40;;;;;;;1.60;1.10;;;;;;;;;;4929057;28;20200;-75
2021/05/09 03:31:06;;;;;;;2.60;1.23;;;;;;;;;;4935240;28;20118;-74
2021/05/09 03:33:33;;;;;;;2.22;1.20;;;;;;;;;;4923648;28;20039;-74
2021/05/09 03:35:59;;;;;;;1.98;1.10;;;;;;;;;;4920962;28;20059;-74
2021/05/09 03:38:26;;;;;;;2.05;1.10;;;;;;;;;;4916805;28;20051;-74
2021/05/09 03:40:53;;;;;;;1.60;1.10;;;;;;;;;;4926743;28;20178;-74
2021/05/09 03:43:19;;;;;;;2.17;1.10;;;;;;;;;;4915313;28;20060;-74
2021/05/09 03:45:46;;;;;;;2.42;1.00;;;;;;;;;;4921239;28;20533;-74
2021/05/09 03:48:12;;;;;;;2.67;1.30;;;;;;;;;;4924099;28;20078;-74
2021/05/09 03:50:39;;;;;;;3.05;1.20;;;;;;;;;;4932630;28;20079;-75
2021/05/09 03:53:05;;;;;;;1.85;1.00;;;;;;;;;;4925240;28;20075;-75
2021/05/09 03:55:32;;;;;;;2.50;1.10;;;;;;;;;;4921420;28;20071;-74
2021/05/09 03:57:58;;;;;;;2.20;1.00;;;;;;;;;;4947807;28;20486;-75
2021/05/09 04:00:25;;;;;;;2.92;1.30;;;;;;;;;;4932554;28;20082;-75
2021/05/09 04:02:51;;;;;;;2.20;1.27;;;;;;;;;;4919080;28;20059;-74
2021/05/09 04:05:18;;;;;;;1.90;1.10;;;;;;;;;;4918127;28;20067;-75
2021/05/09 04:07:44;;;;;;;2.55;1.20;;;;;;;;;;4914521;28;20070;-75
2021/05/09 04:10:11;;;;;;;2.85;1.30;;;;;;;;;;4921486;28;20063;-76
2021/05/09 04:12:37;;;;;;;4.10;1.20;;;;;;;;;;4924307;28;20059;-78
2021/05/09 04:15:04;;;;;;;2.00;1.20;;;;;;;;;;4920315;28;20048;-76
2021/05/09 04:17:31;;;;;;;2.55;1.02;;;;;;;;;;4925940;28;20526;-75
2021/05/09 04:19:57;;;;;;;2.78;1.20;;;;;;;;;;4939593;28;20121;-75
2021/05/09 04:22:23;;;;;;;2.22;1.13;;;;;;;;;;4947836;28;20122;-75
2021/05/09 04:24:50;;;;;;;1.85;1.10;;;;;;;;;;4929917;28;20515;-76
2021/05/09 04:27:16;;;;;;;2.38;1.10;;;;;;;;;;4935485;28;20067;-75
2021/05/09 04:29:43;;;;;;;2.13;1.20;;;;;;;;;;4939836;28;20522;-75
2021/05/09 04:32:09;;;;;;;1.88;1.00;;;;;;;;;;4931079;28;20063;-76
2021/05/09 04:34:35;;;;;;;3.35;1.20;;;;;;;;;;4933181;28;20078;-76
2021/05/09 04:37:02;;;;;;;2.33;1.20;;;;;;;;;;4922493;28;20090;-75
2021/05/09 04:39:28;;;;;;;2.25;1.20;;;;;;;;;;4924219;28;20123;-76
2021/05/09 04:41:55;;;;;;;1.98;1.10;;;;;;;;;;4929761;28;20480;-76
2021/05/09 04:44:21;;;;;;;1.95;1.20;;;;;;;;;;4914580;28;20078;-74
2021/05/09 04:46:48;;;;;;;2.55;1.17;;;;;;;;;;4943764;28;20542;-75
2021/05/09 04:49:15;;;;;;;2.75;1.10;;;;;;;;;;4931392;28;20081;-75
2021/05/09 04:51:41;;;;;;;2.05;1.20;;;;;;;;;;4923295;28;20059;-76
2021/05/09 04:54:07;;;;;;;2.22;1.10;;;;;;;;;;4909630;28;21892;-75
2021/05/09 04:56:34;;;;;;;2.55;1.20;;;;;;;;;;4913546;28;20096;-75
2021/05/09 04:59:00;;;;;;;2.00;1.08;;;;;;;;;;4917530;28;20064;-76
2021/05/09 05:01:27;;;;;;;2.08;1.27;;;;;;;;;;4938984;28;20067;-76
2021/05/09 05:03:53;;;;;;;2.22;1.27;;;;;;;;;;4922730;28;20061;-75
2021/05/09 05:06:20;;;;;;;2.42;1.02;;;;;;;;;;4913043;28;20068;-74
2021/05/09 05:08:46;;;;;;;2.45;1.30;;;;;;;;;;4926329;28;20075;-74
2021/05/09 05:11:13;;;;;;;2.58;1.30;;;;;;;;;;4921872;28;20056;-74
2021/05/09 05:13:39;;;;;;;1.75;1.05;;;;;;;;;;4922587;28;20067;-75
2021/05/09 05:16:09;;;;;;;2.15;1.15;;;;;;;;;;4928160;28;20786;-75
2021/05/09 05:18:37;;;;;;;1.70;1.00;;;;;;;;;;4928331;28;20036;-74
2021/05/09 05:21:07;;;;;;;1.90;1.10;;;;;;;;;;4927522;28;20050;-74
2021/05/09 05:23:34;;;;;;;1.90;1.20;;;;;;;;;;4921790;28;20074;-75
2021/05/09 05:26:01;;;;;;;2.38;1.30;;;;;;;;;;4920323;28;20570;-74
2021/05/09 05:28:27;;;;;;;2.63;1.20;;;;;;;;;;4933231;28;20059;-75
2021/05/09 05:30:54;;;;;;;1.77;1.00;;;;;;;;;;4919833;28;20066;-76
2021/05/09 05:33:31;;;;;;;2.65;1.42;;;;;;;;;;4932595;28;20071;-74
2021/05/09 05:36:01;;;;;;;2.17;1.30;;;;;;;;;;4922227;28;20063;-74
2021/05/09 05:38:27;;;;;;;2.45;1.45;;;;;;;;;;4924426;28;20070;-75
2021/05/09 05:40:55;;;;;;;2.22;1.13;;;;;;;;;;4916912;28;20075;-75
2021/05/09 05:43:29;;;;;;;2.97;1.10;;;;;;;;;;4919452;28;20059;-75
2021/05/09 05:45:56;;;;;;;2.05;1.20;;;;;;;;;;4936503;28;20543;-75
2021/05/09 05:48:23;;;;;;;3.03;1.30;;;;;;;;;;4943489;28;20447;-75
2021/05/09 05:50:50;;;;;;;3.10;1.20;;;;;;;;;;4921852;28;20559;-76
2021/05/09 05:53:17;;;;;;;3.10;1.20;;;;;;;;;;4924824;28;20088;-75
2021/05/09 05:55:44;;;;;;;1.70;1.20;;;;;;;;;;4921349;28;20063;-76
2021/05/09 05:58:11;;;;;;;1.77;1.00;;;;;;;;;;4910782;28;20108;-75
2021/05/09 06:00:38;;;;;;;2.53;1.25;;;;;;;;;;4934158;28;20067;-76
2021/05/09 06:03:04;;;;;;;1.95;1.00;;;;;;;;;;4908962;28;20511;-76
2021/05/09 06:05:30;;;;;;;1.88;1.00;;;;;;;;;;4924995;28;20093;-76
2021/05/09 06:07:57;;;;;;;2.72;1.35;;;;;;;;;;4930183;28;20043;-75
2021/05/09 06:10:23;;;;;;;1.33;1.05;;;;;;;;;;4939283;28;20059;-75
2021/05/09 06:12:50;;;;;;;2.05;1.10;;;;;;;;;;4917931;28;20064;-75
2021/05/09 06:15:16;;;;;;;1.88;1.02;;;;;;;;;;4941188;28;20168;-75
2021/05/09 06:17:43;;;;;;;2.53;1.27;;;;;;;;;;4937691;28;20074;-75
2021/05/09 06:20:10;;;;;;;2.22;1.10;;;;;;;;;;4911422;28;20059;-76
2021/05/09 06:22:36;;;;;;;2.30;1.17;;;;;;;;;;4941776;28;20578;-76
2021/05/09 06:25:04;;;;;;;1.85;1.27;;;;;;;;;;4946182;28;20059;-76
2021/05/09 06:27:30;;;;;;;2.47;1.13;;;;;;;;;;4924072;28;20094;-75
2021/05/09 06:29:56;;;;;;;1.88;1.10;;;;;;;;;;4934095;28;20075;-76
2021/05/09 06:32:23;;;;;;;2.45;1.20;;;;;;;;;;4927260;28;20473;-75
2021/05/09 06:34:49;;;;;;;2.15;1.40;;;;;;;;;;4921395;28;20056;-75
2021/05/09 06:37:16;;;;;;;1.98;1.35;;;;;;;;;;4920971;28;20063;-75
2021/05/09 06:39:42;;;;;;;1.90;1.10;;;;;;;;;;4918307;28;20299;-76
2021/05/09 06:42:09;;;;;;;2.10;1.20;;;;;;;;;;4916013;28;20063;-76
2021/05/09 06:44:37;;;;;;;1.52;1.00;;;;;;;;;;4929944;28;20067;-76
2021/05/09 06:47:05;;;;;;;5.93;1.20;;;;;;;;;;4942997;28;20119;-75
2021/05/09 06:49:32;;;;;;;2.10;1.33;;;;;;;;;;4926717;28;20071;-74
2021/05/09 06:51:59;;;;;;;2.15;1.30;;;;;;;;;;4913554;28;20056;-75
2021/05/09 06:54:26;;;;;;;1.45;1.10;;;;;;;;;;4919986;28;20586;-74
2021/05/09 06:56:53;;;;;;;3.65;1.40;;;;;;;;;;4926722;28;20121;-74
2021/05/09 06:59:19;;;;;;;2.25;1.23;;;;;;;;;;4914208;28;20083;-75
2021/05/09 07:01:46;;;;;;;2.40;1.20;;;;;;;;;;4940391;28;20071;-76
2021/05/09 07:04:12;;;;;;;2.00;1.10;;;;;;;;;;4934855;28;20059;-77
2021/05/09 07:06:39;;;;;;;2.05;1.13;;;;;;;;;;4934032;28;20504;-76
2021/05/09 07:09:09;;;;;;;2.30;1.30;;;;;;;;;;4926947;28;20063;-75
2021/05/09 07:11:35;;;;;;;2.50;1.30;;;;;;;;;;4913360;28;20507;-75
2021/05/09 07:14:02;;;;;;;2.55;1.52;;;;;;;;;;4921087;28;20092;-76
2021/05/09 07:16:29;;;;;;;1.77;1.00;;;;;;;;;;4931303;28;20068;-75
2021/05/09 07:18:55;;;;;;;2.22;1.20;;;;;;;;;;4915482;28;20420;-76
2021/05/09 07:21:26;;;;;;;2.10;1.40;;;;;;;;;;4925665;28;20066;-76
2021/05/09 07:23:53;;;;;;;2.58;1.25;;;;;;;;;;4928565;28;20642;-79
2021/05/09 07:26:19;;;;;;;2.25;1.45;;;;;;;;;;4924015;28;20071;-76
2021/05/09 07:28:46;;;;;;;2.35;1.30;;;;;;;;;;4931337;28;20157;-75
2021/05/09 07:31:13;;;;;;;2.20;1.33;;;;;;;;;;4930126;28;20104;-79
2021/05/09 07:33:40;;;;;;;1.90;1.25;;;;;;;;;;4937487;28;20031;-81
2021/05/09 07:36:07;;;;;;;2.05;1.27;;;;;;;;;;4919051;28;20313;-77
2021/05/09 07:38:33;;;;;;;3.15;1.20;;;;;;;;;;4939861;28;20092;-77
2021/05/09 07:41:00;;;;;;;4.25;1.50;;;;;;;;;;4920874;28;20051;-76
2021/05/09 07:43:26;;;;;;;1.98;1.30;;;;;;;;;;4912927;28;20066;-77
2021/05/09 07:45:53;;;;;;;2.10;1.23;;;;;;;;;;4917220;28;20680;-77
2021/05/09 07:48:19;;;;;;;3.33;1.40;;;;;;;;;;4914767;28;20453;-77
2021/05/09 07:50:46;;;;;;;10.20;1.73;;;;;;;;;;4922911;28;20086;-77
2021/05/09 07:53:14;;;;;;;2.20;1.23;;;;;;;;;;4934126;28;20146;-76
2021/05/09 07:55:41;;;;;;;2.55;1.50;;;;;;;;;;4916672;28;20444;-77
2021/05/09 07:58:14;;;;;;;5.38;1.20;;;;;;;;;;4930812;28;20064;-77
2021/05/09 08:00:40;;;;;;;2.45;1.25;;;;;;;;;;4935587;28;20044;-77
2021/05/09 08:03:07;;;;;;;1.88;1.10;;;;;;;;;;4920348;28;20071;-78
2021/05/09 08:05:33;;;;;;;1.77;1.08;;;;;;;;;;4929046;28;20119;-76
2021/05/09 08:08:00;;;;;;;2.25;1.40;;;;;;;;;;4930667;28;20070;-76
2021/05/09 08:10:28;;;;;;;3.15;1.27;;;;;;;;;;4927113;28;20063;-77
2021/05/09 08:12:54;;;;;;;2.30;1.20;;;;;;;;;;4916562;28;20079;-77
2021/05/09 08:15:22;;;;;;;2.53;1.08;;;;;;;;;;4928004;28;20388;-77
2021/05/09 08:17:49;;;;;;;1.58;1.10;;;;;;;;;;4913786;28;20294;-77
2021/05/09 08:20:16;;;;;;;1.88;1.05;;;;;;;;;;4926575;28;20123;-75
2021/05/09 08:22:44;;;;;;;2.83;1.40;;;;;;;;;;4911155;28;20773;-77
2021/05/09 08:25:11;;;;;;;2.00;1.10;;;;;;;;;;4933482;28;20796;-77
2021/05/09 08:27:37;;;;;;;2.33;1.30;;;;;;;;;;4928054;28;20056;-76
2021/05/09 08:30:05;;;;;;;4.03;1.40;;;;;;;;;;4912599;28;20510;-76
2021/05/09 08:32:33;;;;;;;2.85;1.40;;;;;;;;;;4925680;28;21263;-76
2021/05/09 08:35:02;;;;;;;2.42;1.20;;;;;;;;;;4913457;28;20055;-76
2021/05/09 08:37:28;;;;;;;2.35;1.08;;;;;;;;;;4915088;28;20062;-76
2021/05/09 08:39:55;;;;;;;1.80;1.20;;;;;;;;;;4913108;29;20063;-76
2021/05/09 08:42:30;;;;;;;2.63;1.17;;;;;;;;;;4913413;28;20749;-76
2021/05/09 08:45:01;;;;;;;1.77;1.20;;;;;;;;;;4904425;28;20126;-77
2021/05/09 08:47:37;;;;;;;2.45;1.35;;;;;;;;;;4923201;28;20063;-77
2021/05/09 08:50:09;;;;;;;4.03;1.55;;;;;;;;;;4899222;29;20059;-76
2021/05/09 08:52:35;;;;;;;;;;;;;;;;;;4923636;28;20043;-76
2021/05/09 08:55:03;;;;;;;3.13;1.40;;;;;;;;;;4932210;28;19954;-76
2021/05/09 08:57:29;;;;;;;3.45;1.40;;;;;;;;;;4928856;28;20795;-76
2021/05/09 08:59:56;;;;;;;3.33;1.20;;;;;;;;;;4928328;28;20874;-76
2021/05/09 09:02:23;;;;;;;3.70;1.48;;;;;;;;;;4925666;28;20072;-76
2021/05/09 09:04:51;;;;;;;3.13;1.42;;;;;;;;;;4922575;28;20126;-77
2021/05/09 09:07:17;;;;;;;2.28;1.20;;;;;;;;;;4935556;28;20068;-75
2021/05/09 09:09:45;;;;;;;2.40;1.27;;;;;;;;;;4930130;28;20978;-76
2021/05/09 09:12:12;;;;;;;2.78;1.17;;;;;;;;;;4927890;28;20055;-78
2021/05/09 09:14:55;;;;;;;4.93;1.40;;;;;;;;;;4915397;28;20067;-77
2021/05/09 09:17:22;;;;;;;4.38;1.20;;;;;;;;;;4930929;28;20082;-74
2021/05/09 09:19:58;;;;;;;2.63;1.20;;;;;;;;;;4929977;28;20547;-75
2021/05/09 09:22:25;;;;;;;3.22;1.35;;;;;;;;;;4934673;28;20080;-78
2021/05/09 09:25:03;;;;;;;5.90;1.60;;;;;;;;;;4921046;28;20459;-80
2021/05/09 09:27:33;;;;;;;5.03;1.30;;;;;;;;;;4909996;28;20130;-80
2021/05/09 09:30:00;;;;;;;5.50;1.35;;;;;;;;;;4933173;28;20464;-80
2021/05/09 09:32:27;;;;;;;4.32;1.60;;;;;;;;;;4942607;28;20056;-81
2021/05/09 09:34:53;;;;;;;3.83;1.60;;;;;;;;;;4914356;28;20040;-79
2021/05/09 09:37:21;;;;;;;9.13;1.45;;;;;;;;;;4932615;28;20032;-80
2021/05/09 09:39:47;;;;;;;5.30;1.70;;;;;;;;;;4909075;28;20119;-81
2021/05/09 09:42:14;;;;;;;8.85;1.90;;;;;;;;;;4944571;28;20100;-81
2021/05/09 09:44:41;;;;;;;3.28;1.58;;;;;;;;;;4930853;28;20759;-80
2021/05/09 09:47:10;;;;;;;9.40;5.30;;;;;;;;;;4924737;28;20550;-77
2021/05/09 09:49:38;;;;;;;18.83;5.50;;;;;;;;;;4933711;28;20113;-77
2021/05/09 09:52:05;;;;;;;9.35;5.50;;;;;;;;;;4912383;28;20986;-75
2021/05/09 09:55:01;;;;;;;11.45;4.50;;;;;;;;;;4931270;28;20070;-82
2021/05/09 09:57:31;;;;;;;13.43;5.57;;;;;;;;;;4921019;28;20112;-81
2021/05/09 10:00:13;;;;;;;8.93;5.20;;;;;;;;;;4900142;28;20519;-80
2021/05/09 10:02:41;;;;;;;8.52;5.70;;;;;;;;;;4937102;28;20063;-83
2021/05/09 10:05:08;;;;;;;9.25;5.93;;;;;;;;;;4936292;28;20077;-80
2021/05/09 10:07:34;;;;;;;6.47;5.03;;;;;;;;;;4942010;28;20072;-80
2021/05/09 10:10:02;;;;;;;10.80;6.20;;;;;;;;;;4945664;28;20119;-81
2021/05/09 10:12:28;;;;;;;10.15;6.00;;;;;;;;;;4930938;28;20084;-80
2021/05/09 10:14:54;;;;;;;11.45;6.78;;;;;;;;;;4934818;28;20059;-79
2021/05/09 10:17:22;;;;;;;8.38;5.90;;;;;;;;;;4919752;28;20543;-79
2021/05/09 10:19:48;;;;;;;8.00;6.60;;;;;;;;;;4923965;28;20040;-80
2021/05/09 10:22:44;;;;;;;8.43;6.75;;;;;;;;;;4908907;29;20270;-78
2021/05/09 10:25:31;;;;;;;6.88;5.82;;;;;;;;;;4905943;29;21583;-79
2021/05/09 10:28:08;;;;;;;9.40;7.05;;;;;;;;;;4900455;28;20051;-78
2021/05/09 10:30:52;;;;;;;8.48;5.75;;;;;;;;;;4922531;28;20103;-77
2021/05/09 10:33:37;;;;;;;8.77;6.18;;;;;;;;;;4920336;28;20334;-79
2021/05/09 10:36:04;;;;;;;11.75;6.65;;;;;;;;;;4937546;28;20452;-78
2021/05/09 10:38:30;;;;;;;8.20;6.80;;;;;;;;;;4924921;28;20059;-78
2021/05/09 10:41:23;;;;;;;8.85;6.65;;;;;;;;;;4915995;28;20111;-78
2021/05/09 10:43:49;;;;;;;10.10;6.47;;;;;;;;;;4903692;28;20059;-76
2021/05/09 10:46:16;;;;;;;9.32;6.10;;;;;;;;;;4938703;28;20063;-77
2021/05/09 10:48:42;;;;;;;7.85;6.32;;;;;;;;;;4914336;28;20088;-78
2021/05/09 10:51:14;;;;;;;9.77;6.13;;;;;;;;;;4937919;28;20106;-78
2021/05/09 10:53:41;;;;;;;7.57;6.07;;;;;;;;;;4934630;28;20063;-76
2021/05/09 10:56:11;;;;;;;10.93;6.43;;;;;;;;;;4923310;28;20059;-77
2021/05/09 10:58:47;;;;;;;7.20;5.50;;;;;;;;;;4915309;28;20669;-77
2021/05/09 11:01:17;;;;;;;9.30;5.90;;;;;;;;;;4917780;28;20118;-79
2021/05/09 11:03:43;;;;;;;9.27;5.80;;;;;;;;;;4934054;28;20045;-79
2021/05/09 11:06:11;;;;;;;8.45;6.60;;;;;;;;;;4921606;28;20499;-78
2021/05/09 11:08:52;;;;;;;7.32;4.20;;;;;;;;;;4916963;28;20071;-77
2021/05/09 11:11:31;;;;;;;4.32;2.42;;;;;;;;;;4917441;28;21322;-77
2021/05/09 11:14:01;;;;;;;8.40;2.65;;;;;;;;;;4917715;28;20150;-78
2021/05/09 11:16:35;;;;;;;4.10;2.35;;;;;;;;;;4930170;28;20067;-78
2021/05/09 11:19:02;;;;;;;3.47;2.10;;;;;;;;;;4935156;28;20040;-82
2021/05/09 11:21:31;;;;;;;5.18;2.65;;;;;;;;;;4935451;28;20071;-81
2021/05/09 11:23:58;;;;;;;5.03;2.20;;;;;;;;;;4922974;28;20103;-78
2021/05/09 11:26:25;;;;;;;5.07;2.15;;;;;;;;;;4919040;28;20126;-78
2021/05/09 11:29:08;;;;;;;6.43;2.35;;;;;;;;;;4916940;28;20060;-76
2021/05/09 11:31:39;;;;;;;5.72;2.22;;;;;;;;;;4935243;28;20570;-76
2021/05/09 11:34:05;;;;;;;3.85;2.15;;;;;;;;;;4924925;28;20562;-77
2021/05/09 11:36:33;;;;;;;3.13;1.70;;;;;;;;;;4911946;29;20070;-77
2021/05/09 11:39:10;;;;;;;6.47;2.00;;;;;;;;;;4924595;28;20063;-76
2021/05/09 11:41:54;;;;;;;9.05;2.35;;;;;;;;;;4933408;28;20060;-77
2021/05/09 11:44:23;;;;;;;3.80;1.77;;;;;;;;;;4926934;28;20044;-76
2021/05/09 11:46:50;;;;;;;5.28;2.03;;;;;;;;;;4921273;28;20095;-76
2021/05/09 11:49:20;;;;;;;4.88;1.98;;;;;;;;;;4923045;28;20063;-77
2021/05/09 11:51:51;;;;;;;4.47;2.05;;;;;;;;;;4939021;28;20074;-77
2021/05/09 11:54:18;;;;;;;4.57;2.10;;;;;;;;;;4923277;28;20071;-76
2021/05/09 11:56:51;;;;;;;3.47;2.10;;;;;;;;;;4922447;28;20075;-76
2021/05/09 11:59:28;;;;;;;4.18;2.38;;;;;;;;;;4932696;28;20117;-76
2021/05/09 12:01:54;;;;;;;3.08;1.70;;;;;;;;;;4928602;28;20143;-76
2021/05/09 12:04:21;;;;;;;5.15;2.10;;;;;;;;;;4923923;28;20064;-76
2021/05/09 12:06:47;;;;;;;3.42;1.75;;;;;;;;;;4915484;28;20091;-76
2021/05/09 12:09:14;;;;;;;3.38;1.70;;;;;;;;;;4928432;28;20118;-76
2021/05/09 12:11:40;;;;;;;2.30;1.70;;;;;;;;;;4941184;28;20048;-76
2021/05/09 12:14:07;;;;;;;5.18;1.77;;;;;;;;;;4920811;28;20064;-76
2021/05/09 12:16:47;;;;;;;2.58;1.60;;;;;;;;;;4923119;28;20115;-76
2021/05/09 12:19:14;;;;;;;3.13;1.83;;;;;;;;;;4922562;28;20826;-76
2021/05/09 12:21:54;;;;;;;2.55;1.92;;;;;;;;;;4926044;28;20052;-76
2021/05/09 12:24:21;;;;;;;3.88;2.00;;;;;;;;;;4931261;28;20071;-77
2021/05/09 12:27:16;;;;;;;3.17;1.73;;;;;;;;;;4931420;28;20579;-74
2021/05/09 12:29:43;;;;;;;3.33;1.73;;;;;;;;;;4906451;28;20043;-77
2021/05/09 12:32:20;;;;;;;3.15;1.60;;;;;;;;;;4934617;28;20569;-77
2021/05/09 12:35:06;;;;;;;3.75;1.60;;;;;;;;;;4930824;28;20204;-74
2021/05/09 12:37:36;;;;;;;3.88;1.80;;;;;;;;;;4917329;28;20068;-74
2021/05/09 12:40:15;;;;;;;2.35;1.60;;;;;;;;;;4912483;28;20071;-76
2021/05/09 12:42:54;;;;;;;2.85;1.55;;;;;;;;;;4929896;28;20064;-76
2021/05/09 12:45:31;;;;;;;3.45;1.67;;;;;;;;;;4928791;28;20649;-75
2021/05/09 12:48:02;;;;;;;5.63;1.67;;;;;;;;;;4910714;28;20099;-76
2021/05/09 12:50:43;;;;;;;3.40;1.67;;;;;;;;;;4930503;28;20803;-76
2021/05/09 12:53:09;;;;;;;4.00;1.60;;;;;;;;;;4917434;28;20245;-75
2021/05/09 12:55:36;;;;;;;3.40;1.75;;;;;;;;;;4921789;28;20100;-74
2021/05/09 12:58:10;;;;;;;3.85;1.80;;;;;;;;;;4921212;28;20075;-75
2021/05/09 13:00:37;;;;;;;3.92;1.70;;;;;;;;;;4934612;28;20056;-75
2021/05/09 13:03:04;;;;;;;4.68;1.67;;;;;;;;;;4918203;28;20059;-75
2021/05/09 13:05:30;;;;;;;4.40;1.98;;;;;;;;;;4922664;28;20105;-75
2021/05/09 13:07:57;;;;;;;4.65;1.60;;;;;;;;;;4909297;28;20083;-75
2021/05/09 13:10:24;;;;;;;5.57;2.22;;;;;;;;;;4921579;28;20060;-74
2021/05/09 13:12:52;;;;;;;3.00;1.35;;;;;;;;;;4935135;28;20044;-75
2021/05/09 13:15:19;;;;;;;2.65;1.45;;;;;;;;;;4917906;28;20060;-75
2021/05/09 13:17:45;;;;;;;4.30;1.80;;;;;;;;;;4934376;28;20067;-75
2021/05/09 13:20:14;;;;;;;14.00;1.98;;;;;;;;;;4919674;28;20485;-75
2021/05/09 13:22:41;;;;;;;2.20;1.67;;;;;;;;;;4918086;28;20098;-75
2021/05/09 13:25:11;;;;;;;2.97;1.70;;;;;;;;;;4912638;28;20051;-74
2021/05/09 13:27:41;;;;;;;3.30;1.73;;;;;;;;;;4916768;28;20104;-75
2021/05/09 13:30:08;;;;;;;2.97;1.42;;;;;;;;;;4918142;28;22046;-75
2021/05/09 13:32:34;;;;;;;4.30;1.52;;;;;;;;;;4914825;28;20581;-75
2021/05/09 13:35:01;;;;;;;3.35;1.40;;;;;;;;;;4920366;28;20074;-74
2021/05/09 13:37:27;;;;;;;2.60;1.52;;;;;;;;;;4927173;28;20059;-75
2021/05/09 13:39:54;;;;;;;3.55;1.90;;;;;;;;;;4916717;28;20095;-75
2021/05/09 13:42:20;;;;;;;3.67;1.60;;;;;;;;;;4914263;28;20233;-75
2021/05/09 13:44:46;;;;;;;3.97;1.60;;;;;;;;;;4922999;28;20071;-76
2021/05/09 13:47:13;;;;;;;2.00;1.40;;;;;;;;;;4939785;28;20122;-76
2021/05/09 13:49:39;;;;;;;2.88;1.85;;;;;;;;;;4928129;28;20035;-76
2021/05/09 13:52:06;;;;;;;3.63;1.80;;;;;;;;;;4914472;28;20066;-76
2021/05/09 13:54:32;;;;;;;3.55;1.85;;;;;;;;;;4917046;28;20039;-76
2021/05/09 13:57:02;;;;;;;2.90;1.70;;;;;;;;;;4917058;28;20080;-76
2021/05/09 13:59:28;;;;;;;2.40;1.70;;;;;;;;;;4935804;28;20124;-77
2021/05/09 14:01:54;;;;;;;3.95;1.45;;;;;;;;;;4919236;28;20047;-75
2021/05/09 14:04:21;;;;;;;2.25;1.50;;;;;;;;;;4931361;28;20071;-75
2021/05/09 14:06:47;;;;;;;3.05;1.60;;;;;;;;;;4929420;28;20098;-76
2021/05/09 14:09:17;;;;;;;2.67;1.50;;;;;;;;;;4917891;28;20067;-77
2021/05/09 14:11:48;;;;;;;2.85;1.48;;;;;;;;;;4917869;28;20178;-76
2021/05/09 14:14:15;;;;;;;3.83;1.63;;;;;;;;;;4916133;28;20127;-76
2021/05/09 14:16:41;;;;;;;4.30;1.77;;;;;;;;;;4935244;28;20537;-76
2021/05/09 14:19:08;;;;;;;5.32;1.70;;;;;;;;;;4924760;28;20591;-74
2021/05/09 14:21:34;;;;;;;7.88;1.80;;;;;;;;;;4930430;28;20532;-76
2021/05/09 14:24:00;;;;;;;3.67;1.58;;;;;;;;;;4919650;28;20172;-75
2021/05/09 14:26:27;;;;;;;4.25;1.50;;;;;;;;;;4923491;28;20058;-76
2021/05/09 14:28:53;;;;;;;5.80;1.80;;;;;;;;;;4915790;28;20095;-75
2021/05/09 14:31:20;;;;;;;2.15;1.45;;;;;;;;;;4928676;28;20607;-75
2021/05/09 14:33:46;;;;;;;3.35;1.52;;;;;;;;;;4921603;28;20048;-76
2021/05/09 14:36:13;;;;;;;3.20;1.50;;;;;;;;;;4923936;28;20055;-75
2021/05/09 14:38:39;;;;;;;2.25;1.50;;;;;;;;;;4916280;28;20086;-75
2021/05/09 14:41:05;;;;;;;3.95;1.60;;;;;;;;;;4910671;29;20055;-76
2021/05/09 14:43:32;;;;;;;4.03;1.75;;;;;;;;;;4920513;29;20066;-76
2021/05/09 14:45:58;;;;;;;4.88;1.50;;;;;;;;;;4915013;28;20074;-76
2021/05/09 14:48:25;;;;;;;2.92;1.40;;;;;;;;;;4925500;28;20452;-76